Time;durP1;ratioP1;P1;durP2;ratioP2;P2;SDS_P1;SDS_P2;PMS_P1;PMS_P2;Temp;Humidity;BMP_temperature;BMP_pressure;BME280_temperature;BME280_humidity;BME280_pressure;Samples;Min_cycle;Max_cycle;Signal;HPM_P1;HPM_P2
2023/09/01 00:00:26;;;;;;;7.13;4.35;;;;;;;;;;2091081;28;20044;-62
2023/09/01 00:01:41;;;;;;;8.77;4.80;;;;;;;;;;2090816;28;20055;-62
2023/09/01 00:02:58;;;;;;;8.93;5.20;;;;;;;;;;2090803;28;20048;-62
2023/09/01 00:03:59;;;;;;;10.00;5.20;;;;;;;;;;2090527;28;20405;-62
2023/09/01 00:05:00;;;;;;;8.95;5.45;;;;;;;;;;2091422;28;20052;-62
2023/09/01 00:06:02;;;;;;;8.07;5.75;;;;;;;;;;2091429;28;20044;-62
2023/09/01 00:07:03;;;;;;;7.95;4.90;;;;;;;;;;2090315;28;20037;-62
2023/09/01 00:08:04;;;;;;;10.25;5.68;;;;;;;;;;2090062;28;20044;-62
2023/09/01 00:09:05;;;;;;;9.32;5.53;;;;;;;;;;2091157;28;20041;-63
2023/09/01 00:10:06;;;;;;;9.23;5.85;;;;;;;;;;2091357;28;20044;-63
2023/09/01 00:11:06;;;;;;;10.38;5.93;;;;;;;;;;2090759;28;20053;-62
2023/09/01 00:12:07;;;;;;;8.50;4.93;;;;;;;;;;2090920;28;20045;-62
2023/09/01 00:13:08;;;;;;;10.68;5.38;;;;;;;;;;2090629;28;20418;-62
2023/09/01 00:14:09;;;;;;;10.75;6.15;;;;;;;;;;2090722;28;20480;-63
2023/09/01 00:15:10;;;;;;;7.68;5.28;;;;;;;;;;2090632;28;20064;-62
2023/09/01 00:16:10;;;;;;;8.35;5.28;;;;;;;;;;2091096;28;20032;-62
2023/09/01 00:17:11;;;;;;;10.07;6.25;;;;;;;;;;2090669;28;20048;-62
2023/09/01 00:18:12;;;;;;;9.13;5.68;;;;;;;;;;2091602;28;20048;-62
2023/09/01 00:19:13;;;;;;;10.95;5.82;;;;;;;;;;2091280;28;20040;-62
2023/09/01 00:20:13;;;;;;;9.45;5.40;;;;;;;;;;2091154;28;20037;-62
2023/09/01 00:21:14;;;;;;;8.30;5.53;;;;;;;;;;2090985;28;20461;-62
2023/09/01 00:22:15;;;;;;;10.50;6.30;;;;;;;;;;2090930;28;20041;-61
2023/09/01 00:23:16;;;;;;;8.38;5.43;;;;;;;;;;2091591;28;20052;-61
2023/09/01 00:24:16;;;;;;;10.15;5.95;;;;;;;;;;2091354;28;20511;-62
2023/09/01 00:25:17;;;;;;;9.90;5.38;;;;;;;;;;2091460;28;20053;-63
2023/09/01 00:26:18;;;;;;;10.15;6.25;;;;;;;;;;2090933;28;20040;-62
2023/09/01 00:27:22;;;;;;;9.32;6.80;;;;;;;;;;2090521;28;20041;-62
2023/09/01 00:28:22;;;;;;;9.40;6.25;;;;;;;;;;2090908;28;20036;-63
2023/09/01 00:29:23;;;;;;;8.60;5.68;;;;;;;;;;2090532;28;20405;-62
2023/09/01 00:30:26;;;;;;;9.82;6.20;;;;;;;;;;2090143;28;20071;-63
2023/09/01 00:31:27;;;;;;;9.85;5.85;;;;;;;;;;2089963;28;20052;-62
2023/09/01 00:32:28;;;;;;;9.00;6.15;;;;;;;;;;2090534;28;20529;-62
2023/09/01 00:33:29;;;;;;;9.48;6.30;;;;;;;;;;2090579;28;20378;-62
2023/09/01 00:34:30;;;;;;;11.68;6.22;;;;;;;;;;2090087;28;20048;-62
2023/09/01 00:35:30;;;;;;;11.48;6.40;;;;;;;;;;2082187;28;20041;-62
2023/09/01 00:36:31;;;;;;;9.38;6.63;;;;;;;;;;2089900;28;20041;-62
2023/09/01 00:37:32;;;;;;;9.18;7.10;;;;;;;;;;2090120;28;20048;-62
2023/09/01 00:38:33;;;;;;;9.30;7.03;;;;;;;;;;2089941;28;20053;-62
2023/09/01 00:39:33;;;;;;;16.13;7.95;;;;;;;;;;2090618;28;20382;-63
2023/09/01 00:40:34;;;;;;;12.93;7.72;;;;;;;;;;2089854;28;20128;-62
2023/09/01 00:41:35;;;;;;;13.20;7.35;;;;;;;;;;2090257;28;20048;-63
2023/09/01 00:42:36;;;;;;;12.93;7.15;;;;;;;;;;2090613;28;20040;-62
2023/09/01 00:43:37;;;;;;;13.90;7.85;;;;;;;;;;2090489;28;20073;-62
2023/09/01 00:44:37;;;;;;;13.38;7.57;;;;;;;;;;2090142;28;20028;-62
2023/09/01 00:45:38;;;;;;;11.68;7.57;;;;;;;;;;2082373;28;20398;-63
2023/09/01 00:46:39;;;;;;;10.35;7.43;;;;;;;;;;2090072;28;20055;-63
2023/09/01 00:47:40;;;;;;;12.63;7.57;;;;;;;;;;2090632;28;20040;-63
2023/09/01 00:48:40;;;;;;;10.63;7.68;;;;;;;;;;2090252;28;20045;-63
2023/09/01 00:49:41;;;;;;;12.65;8.10;;;;;;;;;;2090049;28;20033;-63
2023/09/01 00:50:42;;;;;;;11.60;6.38;;;;;;;;;;2089913;28;20048;-62
2023/09/01 00:51:46;;;;;;;11.60;8.23;;;;;;;;;;2081699;28;20478;-63
2023/09/01 00:52:47;;;;;;;10.93;7.25;;;;;;;;;;2082301;28;20026;-62
2023/09/01 00:53:48;;;;;;;11.90;7.50;;;;;;;;;;2090887;28;20464;-63
2023/09/01 00:54:48;;;;;;;14.63;8.07;;;;;;;;;;2090374;28;20044;-62
2023/09/01 00:55:49;;;;;;;9.23;7.30;;;;;;;;;;2090250;28;20029;-62
2023/09/01 00:56:50;;;;;;;14.63;9.10;;;;;;;;;;2089700;28;20120;-62
2023/09/01 00:57:51;;;;;;;10.65;7.90;;;;;;;;;;2090011;28;20116;-62
2023/09/01 00:58:52;;;;;;;13.25;8.65;;;;;;;;;;2081792;28;20047;-62
2023/09/01 00:59:52;;;;;;;12.50;8.43;;;;;;;;;;2090204;28;20124;-62
2023/09/01 01:00:57;;;;;;;11.65;8.85;;;;;;;;;;2089450;28;20056;-62
2023/09/01 01:01:58;;;;;;;11.63;7.10;;;;;;;;;;2090089;28;20047;-62
2023/09/01 01:03:06;;;;;;;12.93;8.63;;;;;;;;;;2081790;28;20056;-62
2023/09/01 01:04:07;;;;;;;10.50;8.50;;;;;;;;;;2082682;28;20127;-62
2023/09/01 01:05:14;;;;;;;14.20;8.98;;;;;;;;;;2089685;28;20056;-62
2023/09/01 01:06:17;;;;;;;11.85;8.70;;;;;;;;;;2090582;28;20418;-62
2023/09/01 01:07:22;;;;;;;11.70;7.85;;;;;;;;;;2090580;28;20025;-62
2023/09/01 01:08:23;;;;;;;11.18;7.85;;;;;;;;;;2089779;28;20040;-62
2023/09/01 01:09:30;;;;;;;12.38;8.20;;;;;;;;;;2089536;28;20098;-62
2023/09/01 01:10:34;;;;;;;11.32;8.85;;;;;;;;;;2090798;28;20473;-62
2023/09/01 01:11:53;;;;;;;10.63;7.70;;;;;;;;;;2089872;28;20400;-62
2023/09/01 01:13:04;;;;;;;11.27;8.25;;;;;;;;;;2084396;28;20034;-62
2023/09/01 01:14:07;;;;;;;11.70;9.43;;;;;;;;;;2082913;28;20026;-62
2023/09/01 01:15:09;;;;;;;12.30;9.10;;;;;;;;;;2074204;28;20038;-62
2023/09/01 01:16:10;;;;;;;14.10;8.82;;;;;;;;;;2074202;28;20041;-62
2023/09/01 01:17:12;;;;;;;13.63;8.27;;;;;;;;;;2073721;28;20034;-62
2023/09/01 01:18:13;;;;;;;12.52;8.65;;;;;;;;;;2081031;28;20053;-62
2023/09/01 01:19:32;;;;;;;11.88;9.07;;;;;;;;;;2089130;28;20520;-62
2023/09/01 01:20:33;;;;;;;;;;;;;;;;;;2084530;28;20036;-62
2023/09/01 01:21:34;;;;;;;15.30;8.43;;;;;;;;;;2089940;28;20300;-62
2023/09/01 01:22:40;;;;;;;11.75;9.07;;;;;;;;;;2089776;28;20484;-61
2023/09/01 01:23:42;;;;;;;10.10;7.35;;;;;;;;;;2082656;28;20049;-62
2023/09/01 01:24:42;;;;;;;11.60;9.23;;;;;;;;;;2089499;28;20098;-62
2023/09/01 01:25:44;;;;;;;11.95;8.82;;;;;;;;;;2090091;28;20091;-62
2023/09/01 01:26:44;;;;;;;11.60;9.07;;;;;;;;;;2090080;28;20048;-62
2023/09/01 01:27:45;;;;;;;11.32;8.50;;;;;;;;;;2090054;28;20079;-62
2023/09/01 01:28:46;;;;;;;12.10;9.20;;;;;;;;;;2090036;28;20068;-61
2023/09/01 01:29:47;;;;;;;15.02;9.63;;;;;;;;;;2089603;28;20519;-62
2023/09/01 01:30:48;;;;;;;12.35;8.85;;;;;;;;;;2089183;28;20048;-61
2023/09/01 01:31:48;;;;;;;10.38;8.68;;;;;;;;;;2090328;28;20063;-62
2023/09/01 01:32:49;;;;;;;12.27;8.85;;;;;;;;;;2089461;28;20044;-62
2023/09/01 01:33:58;;;;;;;11.07;8.35;;;;;;;;;;2089401;28;20041;-61
2023/09/01 01:35:04;;;;;;;15.50;9.85;;;;;;;;;;2081708;28;20478;-62
2023/09/01 01:36:16;;;;;;;13.65;8.93;;;;;;;;;;2074821;28;20486;-61
2023/09/01 01:37:19;;;;;;;11.77;8.23;;;;;;;;;;2083226;28;20042;-62
2023/09/01 01:38:26;;;;;;;12.02;9.77;;;;;;;;;;2089743;28;20052;-62
2023/09/01 01:39:27;;;;;;;10.77;8.95;;;;;;;;;;2089725;28;20040;-62
2023/09/01 01:40:29;;;;;;;13.00;9.00;;;;;;;;;;2081435;28;20042;-61
2023/09/01 01:41:48;;;;;;;15.00;9.18;;;;;;;;;;2081914;28;20430;-62
2023/09/01 01:42:49;;;;;;;12.45;8.95;;;;;;;;;;2090284;28;20041;-61
2023/09/01 01:43:49;;;;;;;11.82;9.00;;;;;;;;;;2090534;28;20029;-61
2023/09/01 01:44:51;;;;;;;14.80;8.98;;;;;;;;;;2089825;28;20039;-61
2023/09/01 01:45:52;;;;;;;15.00;8.93;;;;;;;;;;2089627;28;20478;-61
2023/09/01 01:46:52;;;;;;;15.82;10.52;;;;;;;;;;2090392;28;20387;-61
2023/09/01 01:47:53;;;;;;;12.15;8.77;;;;;;;;;;2090322;28;20040;-61
2023/09/01 01:48:55;;;;;;;10.85;8.15;;;;;;;;;;2089379;28;20048;-60
2023/09/01 01:49:55;;;;;;;14.23;10.18;;;;;;;;;;2089390;28;20041;-61
2023/09/01 01:50:56;;;;;;;11.52;8.98;;;;;;;;;;2089732;28;20045;-60
2023/09/01 01:51:57;;;;;;;14.68;10.38;;;;;;;;;;2081393;28;20037;-62
2023/09/01 01:52:58;;;;;;;12.60;9.45;;;;;;;;;;2089102;28;20048;-62
2023/09/01 01:53:59;;;;;;;14.38;9.85;;;;;;;;;;2090564;28;20037;-61
2023/09/01 01:55:00;;;;;;;15.20;9.57;;;;;;;;;;2089264;28;20045;-61
2023/09/01 01:56:03;;;;;;;12.40;10.02;;;;;;;;;;2089756;28;20036;-62
2023/09/01 01:57:04;;;;;;;14.23;9.55;;;;;;;;;;2089793;28;20037;-62
2023/09/01 01:58:05;;;;;;;15.45;10.20;;;;;;;;;;2088915;28;20048;-58
2023/09/01 01:59:06;;;;;;;12.88;9.95;;;;;;;;;;2089870;28;20047;-62
2023/09/01 02:00:11;;;;;;;11.90;9.10;;;;;;;;;;2081355;28;20136;-62
2023/09/01 02:01:13;;;;;;;15.25;11.02;;;;;;;;;;2089282;28;20041;-61
2023/09/01 02:02:14;;;;;;;13.23;10.15;;;;;;;;;;2088667;28;20504;-61
2023/09/01 02:03:15;;;;;;;12.75;9.52;;;;;;;;;;2081653;28;20048;-61
2023/09/01 02:04:16;;;;;;;13.75;10.13;;;;;;;;;;2089474;28;20029;-61
2023/09/01 02:05:16;;;;;;;15.40;10.05;;;;;;;;;;2090166;28;20111;-61
2023/09/01 02:06:17;;;;;;;14.30;10.57;;;;;;;;;;2090463;28;20048;-60
2023/09/01 02:07:18;;;;;;;13.52;10.23;;;;;;;;;;2089166;28;20052;-61
2023/09/01 02:08:19;;;;;;;15.15;10.10;;;;;;;;;;2081310;28;20152;-62
2023/09/01 02:09:20;;;;;;;13.05;10.07;;;;;;;;;;2081513;28;20041;-62
2023/09/01 02:10:20;;;;;;;14.60;9.65;;;;;;;;;;2089575;28;20086;-61
2023/09/01 02:11:21;;;;;;;12.63;9.88;;;;;;;;;;2089210;28;20033;-61
2023/09/01 02:12:22;;;;;;;16.55;9.32;;;;;;;;;;2089516;28;20048;-60
2023/09/01 02:13:23;;;;;;;17.13;9.75;;;;;;;;;;2089480;28;20029;-61
2023/09/01 02:14:23;;;;;;;12.82;9.98;;;;;;;;;;2089869;28;20474;-61
2023/09/01 02:15:24;;;;;;;15.65;10.50;;;;;;;;;;2081629;28;20041;-62
2023/09/01 02:16:25;;;;;;;13.57;8.65;;;;;;;;;;2080984;28;20041;-60
2023/09/01 02:17:25;;;;;;;12.13;9.15;;;;;;;;;;2081041;28;20478;-62
2023/09/01 02:18:26;;;;;;;13.05;9.13;;;;;;;;;;2081585;28;20045;-61
2023/09/01 02:19:27;;;;;;;12.38;9.13;;;;;;;;;;2089464;28;20079;-61
2023/09/01 02:20:30;;;;;;;12.57;9.02;;;;;;;;;;2089882;28;20056;-61
2023/09/01 02:21:31;;;;;;;15.18;9.35;;;;;;;;;;2089646;28;20033;-61
2023/09/01 02:22:31;;;;;;;11.90;8.73;;;;;;;;;;2089490;28;20048;-61
2023/09/01 02:23:32;;;;;;;13.02;9.18;;;;;;;;;;2089235;28;20045;-61
2023/09/01 02:24:33;;;;;;;13.95;9.38;;;;;;;;;;2088871;28;20049;-62
2023/09/01 02:25:37;;;;;;;14.50;9.65;;;;;;;;;;2089766;28;20190;-61
2023/09/01 02:26:37;;;;;;;11.50;7.75;;;;;;;;;;2089194;28;20040;-61
2023/09/01 02:27:39;;;;;;;10.88;8.95;;;;;;;;;;2089525;28;20465;-61
2023/09/01 02:28:40;;;;;;;10.75;8.70;;;;;;;;;;2089877;28;20045;-62
2023/09/01 02:29:40;;;;;;;11.93;9.40;;;;;;;;;;2089972;28;20033;-62
2023/09/01 02:30:41;;;;;;;14.55;8.73;;;;;;;;;;2089013;28;20044;-63
2023/09/01 02:31:42;;;;;;;11.23;9.18;;;;;;;;;;2089520;28;20409;-62
2023/09/01 02:32:43;;;;;;;11.60;7.97;;;;;;;;;;2097695;28;20036;-62
2023/09/01 02:33:43;;;;;;;10.48;9.02;;;;;;;;;;2088930;28;20041;-63
2023/09/01 02:34:44;;;;;;;10.68;7.97;;;;;;;;;;2081453;28;20359;-63
2023/09/01 02:35:48;;;;;;;13.27;9.23;;;;;;;;;;2089536;28;20044;-62
2023/09/01 02:36:49;;;;;;;11.35;8.25;;;;;;;;;;2089891;28;20032;-62
2023/09/01 02:37:49;;;;;;;12.43;8.20;;;;;;;;;;2090007;28;20041;-62
2023/09/01 02:38:51;;;;;;;13.10;8.82;;;;;;;;;;2089970;28;20021;-62
2023/09/01 02:39:51;;;;;;;12.45;8.95;;;;;;;;;;2090017;28;20044;-62
2023/09/01 02:40:53;;;;;;;12.63;9.13;;;;;;;;;;2090093;28;20532;-63
2023/09/01 02:41:54;;;;;;;12.68;9.30;;;;;;;;;;2090055;28;20439;-63
2023/09/01 02:42:54;;;;;;;13.65;9.63;;;;;;;;;;2090017;28;20021;-63
2023/09/01 02:43:55;;;;;;;12.85;9.57;;;;;;;;;;2089802;28;20049;-62
2023/09/01 02:44:56;;;;;;;12.18;9.32;;;;;;;;;;2090020;28;20052;-62
2023/09/01 02:45:57;;;;;;;10.60;8.10;;;;;;;;;;2090135;28;20048;-62
2023/09/01 02:46:58;;;;;;;10.10;8.40;;;;;;;;;;2089976;28;20090;-62
2023/09/01 02:47:58;;;;;;;8.65;7.10;;;;;;;;;;2089471;28;20044;-63
2023/09/01 02:48:59;;;;;;;11.85;8.73;;;;;;;;;;2089356;28;20048;-62
2023/09/01 02:50:01;;;;;;;10.73;8.45;;;;;;;;;;2090368;28;20468;-62
2023/09/01 02:51:04;;;;;;;12.68;8.75;;;;;;;;;;2090036;28;20045;-63
2023/09/01 02:52:05;;;;;;;11.23;8.50;;;;;;;;;;2089737;28;20037;-64
2023/09/01 02:53:06;;;;;;;11.50;9.15;;;;;;;;;;2088657;28;20041;-63
2023/09/01 02:54:07;;;;;;;13.77;10.18;;;;;;;;;;2089114;28;20040;-66
2023/09/01 02:55:08;;;;;;;14.70;10.05;;;;;;;;;;2088665;28;20041;-65
2023/09/01 02:56:09;;;;;;;10.90;9.05;;;;;;;;;;2081377;28;20056;-66
2023/09/01 02:57:10;;;;;;;13.43;8.82;;;;;;;;;;2081481;28;20049;-65
2023/09/01 02:58:10;;;;;;;11.35;8.82;;;;;;;;;;2080931;28;20041;-64
2023/09/01 02:59:11;;;;;;;12.23;8.75;;;;;;;;;;2081388;28;20122;-64
2023/09/01 03:00:18;;;;;;;14.02;9.82;;;;;;;;;;2088952;28;20079;-64
2023/09/01 03:01:18;;;;;;;12.02;9.50;;;;;;;;;;2081431;28;20049;-65
2023/09/01 03:02:19;;;;;;;13.90;10.27;;;;;;;;;;2080985;28;20512;-66
2023/09/01 03:03:21;;;;;;;12.77;9.57;;;;;;;;;;2089278;28;20037;-67
2023/09/01 03:04:22;;;;;;;16.70;10.45;;;;;;;;;;2081347;28;20065;-67
2023/09/01 03:05:23;;;;;;;13.98;10.30;;;;;;;;;;2089374;28;20024;-67
2023/09/01 03:06:24;;;;;;;13.02;9.10;;;;;;;;;;2089111;28;20489;-66
2023/09/01 03:07:27;;;;;;;11.07;8.68;;;;;;;;;;2089043;28;20041;-67
2023/09/01 03:08:27;;;;;;;9.25;7.68;;;;;;;;;;2088934;28;20041;-67
2023/09/01 03:09:28;;;;;;;11.85;8.13;;;;;;;;;;2089269;28;20432;-68
2023/09/01 03:10:29;;;;;;;11.85;8.10;;;;;;;;;;2089507;28;20033;-67
2023/09/01 03:11:29;;;;;;;12.95;8.88;;;;;;;;;;2089944;28;20033;-67
2023/09/01 03:12:33;;;;;;;13.52;9.18;;;;;;;;;;2089026;28;20071;-67
2023/09/01 03:13:33;;;;;;;10.75;8.27;;;;;;;;;;2089363;28;20045;-65
2023/09/01 03:14:35;;;;;;;11.32;8.23;;;;;;;;;;2090666;28;20048;-65
2023/09/01 03:15:36;;;;;;;12.02;8.60;;;;;;;;;;2090922;28;20393;-64
2023/09/01 03:16:36;;;;;;;8.70;7.68;;;;;;;;;;2091722;28;20041;-64
2023/09/01 03:17:37;;;;;;;10.52;8.65;;;;;;;;;;2090545;28;20122;-66
2023/09/01 03:18:38;;;;;;;10.30;8.50;;;;;;;;;;2082533;28;20032;-67
2023/09/01 03:19:39;;;;;;;11.98;7.50;;;;;;;;;;2090666;28;20052;-65
2023/09/01 03:20:40;;;;;;;12.93;7.40;;;;;;;;;;2090857;28;20029;-64
2023/09/01 03:21:41;;;;;;;12.38;7.60;;;;;;;;;;2075036;28;20057;-64
2023/09/01 03:22:42;;;;;;;11.43;6.45;;;;;;;;;;2082529;28;20101;-63
2023/09/01 03:23:43;;;;;;;10.25;6.50;;;;;;;;;;2098722;28;20041;-63
2023/09/01 03:24:43;;;;;;;9.45;6.45;;;;;;;;;;2091093;28;20492;-63
2023/09/01 03:25:51;;;;;;;8.48;5.00;;;;;;;;;;2090827;28;20032;-64
2023/09/01 03:26:52;;;;;;;6.85;4.80;;;;;;;;;;2090550;28;20032;-67
2023/09/01 03:27:53;;;;;;;8.45;5.13;;;;;;;;;;2091345;28;20049;-65
2023/09/01 03:28:53;;;;;;;6.95;3.72;;;;;;;;;;2091299;28;20032;-64
2023/09/01 03:29:55;;;;;;;5.65;4.22;;;;;;;;;;2090928;28;20432;-65
2023/09/01 03:30:58;;;;;;;4.47;2.95;;;;;;;;;;2082863;28;20046;-64
2023/09/01 03:31:59;;;;;;;10.15;3.95;;;;;;;;;;2082534;28;20065;-64
2023/09/01 03:33:00;;;;;;;8.77;3.50;;;;;;;;;;2090736;28;20029;-64
2023/09/01 03:34:01;;;;;;;6.30;3.47;;;;;;;;;;2091029;28;20048;-64
2023/09/01 03:35:02;;;;;;;5.18;2.78;;;;;;;;;;2090730;28;20432;-65
2023/09/01 03:36:03;;;;;;;5.05;3.30;;;;;;;;;;2082840;28;20048;-65
2023/09/01 03:37:03;;;;;;;5.57;3.38;;;;;;;;;;2081921;28;20433;-66
2023/09/01 03:38:05;;;;;;;4.32;2.20;;;;;;;;;;2082505;28;20523;-64
2023/09/01 03:39:07;;;;;;;4.93;3.20;;;;;;;;;;2082267;28;20053;-63
2023/09/01 03:40:09;;;;;;;4.32;2.40;;;;;;;;;;2082326;28;20460;-64
2023/09/01 03:41:10;;;;;;;6.43;2.70;;;;;;;;;;2082282;28;20563;-64
2023/09/01 03:42:10;;;;;;;5.68;2.92;;;;;;;;;;2090692;28;20036;-65
2023/09/01 03:43:12;;;;;;;6.03;2.60;;;;;;;;;;2090668;28;20515;-64
2023/09/01 03:44:12;;;;;;;4.78;2.97;;;;;;;;;;2090540;28;20044;-64
2023/09/01 03:45:14;;;;;;;4.40;2.80;;;;;;;;;;2090886;28;20484;-63
2023/09/01 03:46:15;;;;;;;6.00;3.22;;;;;;;;;;2090869;28;20072;-63
2023/09/01 03:47:16;;;;;;;5.15;2.92;;;;;;;;;;2090549;28;20100;-63
2023/09/01 03:48:16;;;;;;;3.35;2.17;;;;;;;;;;2090582;28;20037;-62
2023/09/01 03:49:17;;;;;;;4.43;2.50;;;;;;;;;;2090611;28;20060;-63
2023/09/01 03:50:18;;;;;;;4.78;3.15;;;;;;;;;;2082563;28;20432;-63
2023/09/01 03:51:19;;;;;;;4.78;3.13;;;;;;;;;;2090686;28;20041;-63
2023/09/01 03:52:19;;;;;;;4.65;2.72;;;;;;;;;;2090643;28;20052;-63
2023/09/01 03:53:20;;;;;;;5.60;2.72;;;;;;;;;;2082013;28;20037;-63
2023/09/01 03:54:21;;;;;;;6.10;3.50;;;;;;;;;;2090318;28;20052;-62
2023/09/01 03:55:22;;;;;;;7.80;3.20;;;;;;;;;;2091141;28;20049;-62
2023/09/01 03:56:23;;;;;;;5.60;3.00;;;;;;;;;;2091668;28;20392;-63
2023/09/01 03:57:23;;;;;;;5.68;2.60;;;;;;;;;;2091224;28;20098;-64
2023/09/01 03:58:24;;;;;;;6.22;2.78;;;;;;;;;;2090631;28;20550;-62
2023/09/01 03:59:25;;;;;;;4.78;2.70;;;;;;;;;;2091121;28;20132;-63
2023/09/01 04:00:26;;;;;;;6.20;2.83;;;;;;;;;;2091209;28;20068;-62
2023/09/01 04:01:26;;;;;;;6.28;2.72;;;;;;;;;;2091494;28;20053;-63
2023/09/01 04:02:27;;;;;;;5.50;2.13;;;;;;;;;;2091143;28;20044;-62
2023/09/01 04:03:28;;;;;;;4.10;2.47;;;;;;;;;;2091038;28;20048;-64
2023/09/01 04:04:29;;;;;;;3.97;2.80;;;;;;;;;;2090849;28;20527;-63
2023/09/01 04:05:29;;;;;;;5.38;2.88;;;;;;;;;;2082220;28;20045;-62
2023/09/01 04:06:30;;;;;;;6.05;2.70;;;;;;;;;;2089858;28;20063;-62
2023/09/01 04:07:31;;;;;;;6.55;2.75;;;;;;;;;;2090509;28;20396;-63
2023/09/01 04:08:32;;;;;;;5.07;2.88;;;;;;;;;;2082157;28;20052;-63
2023/09/01 04:09:33;;;;;;;3.88;2.72;;;;;;;;;;2090284;28;20489;-63
2023/09/01 04:10:34;;;;;;;4.60;2.90;;;;;;;;;;2091094;28;20025;-63
2023/09/01 04:11:34;;;;;;;4.80;2.92;;;;;;;;;;2090381;28;20044;-62
2023/09/01 04:12:35;;;;;;;5.45;3.08;;;;;;;;;;2090526;28;20091;-62
2023/09/01 04:13:36;;;;;;;6.82;2.42;;;;;;;;;;2091272;28;20366;-61
2023/09/01 04:14:37;;;;;;;6.63;3.10;;;;;;;;;;2090966;28;20485;-62
2023/09/01 04:15:37;;;;;;;6.55;2.90;;;;;;;;;;2090390;28;20032;-62
2023/09/01 04:16:38;;;;;;;4.43;2.65;;;;;;;;;;2090682;28;20036;-62
2023/09/01 04:17:39;;;;;;;4.38;2.92;;;;;;;;;;2090880;28;20393;-62
2023/09/01 04:18:40;;;;;;;6.00;3.15;;;;;;;;;;2090364;28;20059;-62
2023/09/01 04:19:41;;;;;;;5.55;2.75;;;;;;;;;;2082355;28;20093;-62
2023/09/01 04:20:48;;;;;;;4.80;2.70;;;;;;;;;;2090085;28;20060;-63
2023/09/01 04:21:48;;;;;;;5.47;3.17;;;;;;;;;;2090015;28;20049;-63
2023/09/01 04:22:49;;;;;;;5.38;2.67;;;;;;;;;;2082136;28;20042;-63
2023/09/01 04:23:50;;;;;;;5.32;2.70;;;;;;;;;;2089925;28;20123;-62
2023/09/01 04:24:51;;;;;;;4.82;2.80;;;;;;;;;;2090173;28;20474;-62
2023/09/01 04:25:52;;;;;;;5.88;3.15;;;;;;;;;;2082253;28;20029;-63
2023/09/01 04:26:57;;;;;;;5.18;3.03;;;;;;;;;;2082649;28;20064;-63
2023/09/01 04:27:59;;;;;;;6.10;3.33;;;;;;;;;;2082012;28;20041;-63
2023/09/01 04:28:59;;;;;;;5.35;3.03;;;;;;;;;;2090262;28;20049;-62
2023/09/01 04:30:03;;;;;;;5.43;2.90;;;;;;;;;;2090056;28;20036;-62
2023/09/01 04:31:15;;;;;;;7.80;3.35;;;;;;;;;;2082201;28;20033;-63
2023/09/01 04:32:17;;;;;;;5.30;2.70;;;;;;;;;;2083227;28;20600;-62
2023/09/01 04:33:18;;;;;;;5.05;2.80;;;;;;;;;;2082132;28;20116;-62
2023/09/01 04:34:20;;;;;;;4.85;3.10;;;;;;;;;;2089491;28;20444;-62
2023/09/01 04:35:21;;;;;;;5.22;3.20;;;;;;;;;;2090162;28;20041;-62
2023/09/01 04:36:21;;;;;;;5.28;2.97;;;;;;;;;;2081947;28;20033;-62
2023/09/01 04:37:22;;;;;;;5.40;3.00;;;;;;;;;;2081591;28;20045;-62
2023/09/01 04:38:24;;;;;;;7.45;3.55;;;;;;;;;;2082119;28;20045;-63
2023/09/01 04:39:25;;;;;;;4.88;3.30;;;;;;;;;;2089855;28;20511;-62
2023/09/01 04:40:26;;;;;;;6.20;3.05;;;;;;;;;;2082025;28;20076;-62
2023/09/01 04:41:26;;;;;;;7.63;3.45;;;;;;;;;;2082024;28;20544;-61
2023/09/01 04:42:27;;;;;;;4.10;2.97;;;;;;;;;;2081666;28;20532;-61
2023/09/01 04:43:28;;;;;;;5.43;3.20;;;;;;;;;;2090108;28;20052;-62
2023/09/01 04:44:29;;;;;;;9.43;3.75;;;;;;;;;;2090091;28;20390;-62
2023/09/01 04:45:30;;;;;;;5.78;3.30;;;;;;;;;;2081846;28;20041;-62
2023/09/01 04:46:31;;;;;;;4.85;3.42;;;;;;;;;;2090108;28;20529;-62
2023/09/01 04:47:32;;;;;;;5.55;2.97;;;;;;;;;;2090130;28;20045;-62
2023/09/01 04:48:34;;;;;;;4.85;3.17;;;;;;;;;;2090390;28;20089;-62
2023/09/01 04:49:35;;;;;;;6.68;3.63;;;;;;;;;;2089815;28;20055;-62
2023/09/01 04:50:36;;;;;;;8.18;3.90;;;;;;;;;;2089632;28;20045;-62
2023/09/01 04:51:37;;;;;;;6.13;3.70;;;;;;;;;;2082132;28;20506;-62
2023/09/01 04:52:38;;;;;;;6.22;3.40;;;;;;;;;;2089366;28;20040;-62
2023/09/01 04:53:40;;;;;;;6.38;3.60;;;;;;;;;;2089861;28;20096;-62
2023/09/01 04:54:42;;;;;;;7.63;4.43;;;;;;;;;;2082233;28;20036;-62
2023/09/01 04:55:42;;;;;;;4.50;2.97;;;;;;;;;;2089816;28;20048;-62
2023/09/01 04:56:43;;;;;;;5.65;3.17;;;;;;;;;;2090357;28;20041;-62
2023/09/01 04:57:44;;;;;;;8.77;4.65;;;;;;;;;;2089990;28;20033;-62
2023/09/01 04:58:44;;;;;;;6.95;3.75;;;;;;;;;;2089852;28;20539;-62
2023/09/01 04:59:45;;;;;;;5.30;3.40;;;;;;;;;;2089970;28;20090;-62
2023/09/01 05:00:46;;;;;;;6.10;3.90;;;;;;;;;;2089766;28;20546;-62
2023/09/01 05:01:47;;;;;;;8.00;4.07;;;;;;;;;;2089645;28;20045;-62
2023/09/01 05:02:48;;;;;;;8.13;3.42;;;;;;;;;;2089995;28;20029;-62
2023/09/01 05:03:49;;;;;;;4.85;3.63;;;;;;;;;;2089958;28;20032;-63
2023/09/01 05:04:49;;;;;;;5.07;3.17;;;;;;;;;;2082108;28;20048;-63
2023/09/01 05:05:50;;;;;;;6.15;3.47;;;;;;;;;;2089981;28;20111;-62
2023/09/01 05:06:52;;;;;;;7.40;3.08;;;;;;;;;;2089911;28;20033;-63
2023/09/01 05:07:53;;;;;;;5.90;3.03;;;;;;;;;;2089936;28;20047;-62
2023/09/01 05:08:54;;;;;;;5.80;3.33;;;;;;;;;;2089594;28;20044;-62
2023/09/01 05:09:55;;;;;;;4.45;2.85;;;;;;;;;;2089478;28;20154;-62
2023/09/01 05:10:56;;;;;;;5.63;2.80;;;;;;;;;;2089830;28;20053;-62
2023/09/01 05:11:56;;;;;;;4.70;3.03;;;;;;;;;;2089719;28;20041;-62
2023/09/01 05:12:57;;;;;;;5.28;3.13;;;;;;;;;;2089600;28;20526;-62
2023/09/01 05:13:58;;;;;;;4.93;2.78;;;;;;;;;;2089856;28;20049;-63
2023/09/01 05:15:00;;;;;;;6.35;2.80;;;;;;;;;;2089856;28;20029;-63
2023/09/01 05:16:00;;;;;;;6.53;2.75;;;;;;;;;;2081428;28;20052;-63
2023/09/01 05:17:02;;;;;;;5.13;2.70;;;;;;;;;;2073455;28;20583;-63
2023/09/01 05:18:03;;;;;;;5.53;3.00;;;;;;;;;;2089622;28;20089;-63
2023/09/01 05:19:03;;;;;;;5.18;2.30;;;;;;;;;;2089950;28;20508;-63
2023/09/01 05:20:09;;;;;;;4.47;2.00;;;;;;;;;;2081721;28;20053;-63
2023/09/01 05:21:10;;;;;;;5.05;2.75;;;;;;;;;;2089537;28;20041;-63
2023/09/01 05:22:10;;;;;;;4.82;2.67;;;;;;;;;;2089791;28;20044;-62
2023/09/01 05:23:11;;;;;;;4.85;2.88;;;;;;;;;;2089953;28;20055;-63
2023/09/01 05:24:12;;;;;;;6.78;2.65;;;;;;;;;;2090318;28;20656;-63
2023/09/01 05:25:13;;;;;;;4.13;2.33;;;;;;;;;;2089862;28;20029;-63
2023/09/01 05:26:14;;;;;;;4.32;2.35;;;;;;;;;;2088945;28;20485;-63
2023/09/01 05:27:19;;;;;;;3.95;2.30;;;;;;;;;;2089698;28;20045;-63
2023/09/01 05:28:19;;;;;;;5.30;2.58;;;;;;;;;;2089890;28;20048;-63
2023/09/01 05:29:20;;;;;;;5.43;2.83;;;;;;;;;;2089919;28;20526;-63
2023/09/01 05:30:21;;;;;;;4.72;2.30;;;;;;;;;;2081778;28;20046;-63
2023/09/01 05:31:21;;;;;;;6.90;2.78;;;;;;;;;;2081597;28;20053;-63
2023/09/01 05:32:23;;;;;;;5.35;2.25;;;;;;;;;;2081911;28;20076;-63
2023/09/01 05:33:24;;;;;;;5.68;2.67;;;;;;;;;;2089424;28;20056;-63
2023/09/01 05:34:26;;;;;;;4.75;2.53;;;;;;;;;;2089757;28;20460;-63
2023/09/01 05:35:28;;;;;;;4.20;2.28;;;;;;;;;;2081970;28;20050;-63
2023/09/01 05:36:29;;;;;;;4.93;2.72;;;;;;;;;;2080981;28;20425;-63
2023/09/01 05:37:29;;;;;;;4.25;1.98;;;;;;;;;;2081505;28;20068;-62
2023/09/01 05:38:30;;;;;;;4.63;2.50;;;;;;;;;;2089356;28;20052;-62
2023/09/01 05:39:31;;;;;;;3.42;2.15;;;;;;;;;;2090288;28;20032;-62
2023/09/01 05:40:31;;;;;;;5.40;2.70;;;;;;;;;;2090408;28;20040;-62
2023/09/01 05:41:32;;;;;;;4.60;2.55;;;;;;;;;;2090055;28;20059;-62
2023/09/01 05:42:33;;;;;;;3.63;2.20;;;;;;;;;;2090005;28;20044;-63
2023/09/01 05:43:34;;;;;;;4.82;2.15;;;;;;;;;;2089335;28;20433;-62
2023/09/01 05:44:35;;;;;;;3.17;2.22;;;;;;;;;;2081510;28;20048;-62
2023/09/01 05:45:36;;;;;;;5.15;2.30;;;;;;;;;;2081633;28;20034;-63
2023/09/01 05:46:37;;;;;;;4.47;2.30;;;;;;;;;;2081683;28;20044;-63
2023/09/01 05:47:38;;;;;;;3.97;2.10;;;;;;;;;;2089532;28;20424;-63
2023/09/01 05:48:40;;;;;;;3.65;2.10;;;;;;;;;;2081524;28;20052;-63
2023/09/01 05:49:41;;;;;;;6.63;2.38;;;;;;;;;;2081166;28;20052;-62
2023/09/01 05:50:43;;;;;;;4.50;2.38;;;;;;;;;;2080743;28;20053;-62
2023/09/01 05:51:44;;;;;;;3.13;1.98;;;;;;;;;;2081919;28;20544;-62
2023/09/01 05:52:45;;;;;;;3.65;2.50;;;;;;;;;;2089633;28;20044;-62
2023/09/01 05:53:46;;;;;;;4.57;2.33;;;;;;;;;;2090117;28;20033;-62
2023/09/01 05:54:46;;;;;;;4.30;2.22;;;;;;;;;;2089991;28;20036;-62
2023/09/01 05:55:47;;;;;;;3.05;1.92;;;;;;;;;;2090004;28;20354;-63
2023/09/01 05:56:48;;;;;;;5.75;2.17;;;;;;;;;;2090401;28;20037;-63
2023/09/01 05:57:49;;;;;;;3.78;2.30;;;;;;;;;;2089440;28;20064;-62
2023/09/01 05:58:49;;;;;;;3.83;2.20;;;;;;;;;;2089352;28;20037;-62
2023/09/01 05:59:50;;;;;;;7.20;2.40;;;;;;;;;;2090715;28;20504;-63
2023/09/01 06:00:51;;;;;;;3.83;1.98;;;;;;;;;;2090525;28;20021;-63
2023/09/01 06:01:51;;;;;;;3.05;2.00;;;;;;;;;;2090643;28;20037;-63
2023/09/01 06:02:52;;;;;;;4.72;2.42;;;;;;;;;;2090337;28;20045;-63
2023/09/01 06:03:53;;;;;;;4.97;2.15;;;;;;;;;;2090899;28;20067;-63
2023/09/01 06:04:54;;;;;;;6.50;2.38;;;;;;;;;;2090628;28;20033;-63
2023/09/01 06:05:54;;;;;;;4.72;2.08;;;;;;;;;;2090666;28;20052;-63